sensor_id;sensor_type;location;lat;lon;timestamp;P1;durP1;ratioP1;P2;durP2;ratioP2
7583;SDS011;3833;41.764;26.204;2022-08-21T00:00:19;9.50;;;7.23;;
7583;SDS011;3833;41.764;26.204;2022-08-21T00:02:49;7.00;;;6.20;;
7583;SDS011;3833;41.764;26.204;2022-08-21T00:05:22;9.27;;;6.67;;
7583;SDS011;3833;41.764;26.204;2022-08-21T00:07:49;7.77;;;6.77;;
7583;SDS011;3833;41.764;26.204;2022-08-21T00:10:17;8.30;;;7.00;;
7583;SDS011;3833;41.764;26.204;2022-08-21T00:12:45;9.23;;;7.27;;
7583;SDS011;3833;41.764;26.204;2022-08-21T00:15:14;8.50;;;7.20;;
7583;SDS011;3833;41.764;26.204;2022-08-21T00:17:44;8.57;;;7.30;;
7583;SDS011;3833;41.764;26.204;2022-08-21T00:20:12;9.40;;;7.40;;
7583;SDS011;3833;41.764;26.204;2022-08-21T00:22:41;10.43;;;8.27;;
7583;SDS011;3833;41.764;26.204;2022-08-21T00:25:09;10.10;;;7.60;;
7583;SDS011;3833;41.764;26.204;2022-08-21T00:27:36;9.10;;;8.13;;
7583;SDS011;3833;41.764;26.204;2022-08-21T00:30:04;12.00;;;8.50;;
7583;SDS011;3833;41.764;26.204;2022-08-21T00:32:33;8.87;;;7.97;;
7583;SDS011;3833;41.764;26.204;2022-08-21T00:35:03;10.17;;;7.80;;
7583;SDS011;3833;41.764;26.204;2022-08-21T00:37:31;8.63;;;7.80;;
7583;SDS011;3833;41.764;26.204;2022-08-21T00:39:59;7.43;;;6.67;;
7583;SDS011;3833;41.764;26.204;2022-08-21T00:42:27;8.70;;;7.83;;
7583;SDS011;3833;41.764;26.204;2022-08-21T00:44:56;7.70;;;7.00;;
7583;SDS011;3833;41.764;26.204;2022-08-21T00:47:24;7.90;;;7.10;;
7583;SDS011;3833;41.764;26.204;2022-08-21T00:49:51;8.33;;;7.53;;
7583;SDS011;3833;41.764;26.204;2022-08-21T00:52:19;7.73;;;6.93;;
7583;SDS011;3833;41.764;26.204;2022-08-21T00:54:51;9.07;;;7.67;;
7583;SDS011;3833;41.764;26.204;2022-08-21T00:57:22;10.97;;;7.63;;
7583;SDS011;3833;41.764;26.204;2022-08-21T00:59:54;7.37;;;6.57;;
7583;SDS011;3833;41.764;26.204;2022-08-21T01:02:24;9.17;;;7.27;;
7583;SDS011;3833;41.764;26.204;2022-08-21T01:04:52;9.63;;;7.73;;
7583;SDS011;3833;41.764;26.204;2022-08-21T01:07:19;8.30;;;7.33;;
7583;SDS011;3833;41.764;26.204;2022-08-21T01:09:46;8.37;;;7.10;;
7583;SDS011;3833;41.764;26.204;2022-08-21T01:12:14;8.43;;;7.63;;
7583;SDS011;3833;41.764;26.204;2022-08-21T01:14:43;7.87;;;6.67;;
7583;SDS011;3833;41.764;26.204;2022-08-21T01:17:12;8.13;;;7.30;;
7583;SDS011;3833;41.764;26.204;2022-08-21T01:19:40;8.73;;;7.93;;
7583;SDS011;3833;41.764;26.204;2022-08-21T01:22:09;10.03;;;7.90;;
7583;SDS011;3833;41.764;26.204;2022-08-21T01:24:35;10.67;;;7.77;;
7583;SDS011;3833;41.764;26.204;2022-08-21T01:27:03;8.40;;;7.67;;
7583;SDS011;3833;41.764;26.204;2022-08-21T01:29:31;9.00;;;7.23;;
7583;SDS011;3833;41.764;26.204;2022-08-21T01:32:03;11.40;;;8.13;;
7583;SDS011;3833;41.764;26.204;2022-08-21T01:34:34;8.03;;;7.23;;
7583;SDS011;3833;41.764;26.204;2022-08-21T01:37:04;8.47;;;7.73;;
7583;SDS011;3833;41.764;26.204;2022-08-21T01:39:33;10.70;;;7.63;;
7583;SDS011;3833;41.764;26.204;2022-08-21T01:42:03;7.00;;;6.30;;
7583;SDS011;3833;41.764;26.204;2022-08-21T01:44:30;8.30;;;7.50;;
7583;SDS011;3833;41.764;26.204;2022-08-21T01:46:58;9.20;;;7.37;;
7583;SDS011;3833;41.764;26.204;2022-08-21T01:49:26;8.37;;;7.53;;
7583;SDS011;3833;41.764;26.204;2022-08-21T01:51:54;8.53;;;6.87;;
7583;SDS011;3833;41.764;26.204;2022-08-21T01:54:21;9.10;;;7.37;;
7583;SDS011;3833;41.764;26.204;2022-08-21T01:56:50;8.77;;;7.23;;
7583;SDS011;3833;41.764;26.204;2022-08-21T01:59:20;10.27;;;7.00;;
7583;SDS011;3833;41.764;26.204;2022-08-21T02:01:48;8.47;;;7.17;;
7583;SDS011;3833;41.764;26.204;2022-08-21T02:04:15;10.40;;;7.63;;
7583;SDS011;3833;41.764;26.204;2022-08-21T02:06:43;8.47;;;7.67;;
7583;SDS011;3833;41.764;26.204;2022-08-21T02:09:10;7.97;;;7.17;;
7583;SDS011;3833;41.764;26.204;2022-08-21T02:11:39;8.10;;;7.13;;
7583;SDS011;3833;41.764;26.204;2022-08-21T02:14:07;7.57;;;6.77;;
7583;SDS011;3833;41.764;26.204;2022-08-21T02:16:36;8.47;;;7.33;;
7583;SDS011;3833;41.764;26.204;2022-08-21T02:19:03;7.37;;;6.67;;
7583;SDS011;3833;41.764;26.204;2022-08-21T02:21:30;7.67;;;6.87;;
7583;SDS011;3833;41.764;26.204;2022-08-21T02:23:58;10.47;;;6.57;;
7583;SDS011;3833;41.764;26.204;2022-08-21T02:26:28;8.87;;;7.23;;
7583;SDS011;3833;41.764;26.204;2022-08-21T02:28:55;8.13;;;7.07;;
7583;SDS011;3833;41.764;26.204;2022-08-21T02:31:23;9.33;;;6.90;;
7583;SDS011;3833;41.764;26.204;2022-08-21T02:33:51;7.33;;;6.60;;
7583;SDS011;3833;41.764;26.204;2022-08-21T02:36:18;9.53;;;6.37;;
7583;SDS011;3833;41.764;26.204;2022-08-21T02:38:45;8.33;;;6.67;;
7583;SDS011;3833;41.764;26.204;2022-08-21T02:41:12;10.00;;;6.60;;
7583;SDS011;3833;41.764;26.204;2022-08-21T02:43:41;9.30;;;6.20;;
7583;SDS011;3833;41.764;26.204;2022-08-21T02:46:08;8.90;;;6.00;;
7583;SDS011;3833;41.764;26.204;2022-08-21T02:48:38;8.77;;;6.33;;
7583;SDS011;3833;41.764;26.204;2022-08-21T02:51:06;8.57;;;6.20;;
7583;SDS011;3833;41.764;26.204;2022-08-21T02:53:34;10.97;;;6.77;;
7583;SDS011;3833;41.764;26.204;2022-08-21T02:56:03;8.80;;;6.13;;
7583;SDS011;3833;41.764;26.204;2022-08-21T02:58:32;9.37;;;6.00;;
7583;SDS011;3833;41.764;26.204;2022-08-21T03:01:01;7.07;;;6.37;;
7583;SDS011;3833;41.764;26.204;2022-08-21T03:03:29;7.00;;;5.83;;
7583;SDS011;3833;41.764;26.204;2022-08-21T03:05:57;12.73;;;6.60;;
7583;SDS011;3833;41.764;26.204;2022-08-21T03:08:24;8.90;;;6.43;;
7583;SDS011;3833;41.764;26.204;2022-08-21T03:10:51;7.37;;;6.33;;
7583;SDS011;3833;41.764;26.204;2022-08-21T03:13:19;8.77;;;6.33;;
7583;SDS011;3833;41.764;26.204;2022-08-21T03:15:46;9.83;;;6.57;;
7583;SDS011;3833;41.764;26.204;2022-08-21T03:18:14;10.00;;;7.03;;
7583;SDS011;3833;41.764;26.204;2022-08-21T03:20:41;11.30;;;6.57;;
7583;SDS011;3833;41.764;26.204;2022-08-21T03:23:11;10.03;;;6.50;;
7583;SDS011;3833;41.764;26.204;2022-08-21T03:25:39;9.37;;;6.47;;
7583;SDS011;3833;41.764;26.204;2022-08-21T03:28:07;7.37;;;5.83;;
7583;SDS011;3833;41.764;26.204;2022-08-21T03:30:36;10.70;;;6.50;;
7583;SDS011;3833;41.764;26.204;2022-08-21T03:33:03;10.17;;;6.10;;
7583;SDS011;3833;41.764;26.204;2022-08-21T03:35:30;9.33;;;5.97;;
7583;SDS011;3833;41.764;26.204;2022-08-21T03:37:57;9.47;;;5.90;;
7583;SDS011;3833;41.764;26.204;2022-08-21T03:40:27;7.57;;;5.57;;
7583;SDS011;3833;41.764;26.204;2022-08-21T03:42:55;11.63;;;5.80;;
7583;SDS011;3833;41.764;26.204;2022-08-21T03:45:21;7.97;;;5.30;;
7583;SDS011;3833;41.764;26.204;2022-08-21T03:47:52;9.83;;;7.27;;
7583;SDS011;3833;41.764;26.204;2022-08-21T03:50:22;7.97;;;6.67;;
7583;SDS011;3833;41.764;26.204;2022-08-21T03:52:51;12.80;;;6.40;;
7583;SDS011;3833;41.764;26.204;2022-08-21T03:55:20;8.90;;;5.77;;
7583;SDS011;3833;41.764;26.204;2022-08-21T03:57:49;7.00;;;5.93;;
7583;SDS011;3833;41.764;26.204;2022-08-21T04:00:16;23.37;;;7.27;;
7583;SDS011;3833;41.764;26.204;2022-08-21T04:02:45;10.77;;;6.27;;
7583;SDS011;3833;41.764;26.204;2022-08-21T04:05:13;9.83;;;6.20;;
7583;SDS011;3833;41.764;26.204;2022-08-21T04:07:52;8.80;;;6.00;;
7583;SDS011;3833;41.764;26.204;2022-08-21T04:10:19;8.70;;;5.87;;
7583;SDS011;3833;41.764;26.204;2022-08-21T04:12:46;9.87;;;6.20;;
7583;SDS011;3833;41.764;26.204;2022-08-21T04:15:14;17.83;;;6.43;;
7583;SDS011;3833;41.764;26.204;2022-08-21T04:17:42;11.03;;;6.60;;
7583;SDS011;3833;41.764;26.204;2022-08-21T04:20:09;12.80;;;6.97;;
7583;SDS011;3833;41.764;26.204;2022-08-21T04:22:37;9.20;;;5.67;;
7583;SDS011;3833;41.764;26.204;2022-08-21T04:25:04;10.03;;;6.27;;
7583;SDS011;3833;41.764;26.204;2022-08-21T04:27:32;9.30;;;6.27;;
7583;SDS011;3833;41.764;26.204;2022-08-21T04:29:59;8.13;;;6.53;;
7583;SDS011;3833;41.764;26.204;2022-08-21T04:32:27;8.10;;;6.47;;
7583;SDS011;3833;41.764;26.204;2022-08-21T04:34:57;10.77;;;6.73;;
7583;SDS011;3833;41.764;26.204;2022-08-21T04:37:26;8.67;;;5.90;;
7583;SDS011;3833;41.764;26.204;2022-08-21T04:39:53;11.20;;;7.13;;
7583;SDS011;3833;41.764;26.204;2022-08-21T04:42:22;9.33;;;6.73;;
7583;SDS011;3833;41.764;26.204;2022-08-21T04:44:49;7.10;;;6.33;;
7583;SDS011;3833;41.764;26.204;2022-08-21T04:47:17;8.13;;;6.53;;
7583;SDS011;3833;41.764;26.204;2022-08-21T04:49:45;9.63;;;5.87;;
7583;SDS011;3833;41.764;26.204;2022-08-21T04:52:13;12.53;;;6.60;;
7583;SDS011;3833;41.764;26.204;2022-08-21T04:54:43;10.03;;;6.20;;
7583;SDS011;3833;41.764;26.204;2022-08-21T04:57:11;9.40;;;6.47;;
7583;SDS011;3833;41.764;26.204;2022-08-21T04:59:43;9.27;;;5.87;;
7583;SDS011;3833;41.764;26.204;2022-08-21T05:02:14;8.63;;;6.53;;
7583;SDS011;3833;41.764;26.204;2022-08-21T05:04:42;9.30;;;6.63;;
7583;SDS011;3833;41.764;26.204;2022-08-21T05:07:19;7.30;;;6.20;;
7583;SDS011;3833;41.764;26.204;2022-08-21T05:09:49;9.40;;;5.53;;
7583;SDS011;3833;41.764;26.204;2022-08-21T05:12:16;11.07;;;7.00;;
7583;SDS011;3833;41.764;26.204;2022-08-21T05:14:43;8.97;;;6.43;;
7583;SDS011;3833;41.764;26.204;2022-08-21T05:17:10;12.17;;;6.50;;
7583;SDS011;3833;41.764;26.204;2022-08-21T05:19:39;9.17;;;6.53;;
7583;SDS011;3833;41.764;26.204;2022-08-21T05:22:07;8.13;;;6.53;;
7583;SDS011;3833;41.764;26.204;2022-08-21T05:24:34;9.97;;;6.83;;
7583;SDS011;3833;41.764;26.204;2022-08-21T05:27:01;7.93;;;6.37;;
7583;SDS011;3833;41.764;26.204;2022-08-21T05:29:28;10.13;;;6.47;;
7583;SDS011;3833;41.764;26.204;2022-08-21T05:31:56;8.30;;;6.80;;
7583;SDS011;3833;41.764;26.204;2022-08-21T05:34:23;12.63;;;7.50;;
7583;SDS011;3833;41.764;26.204;2022-08-21T05:36:50;20.87;;;7.77;;
7583;SDS011;3833;41.764;26.204;2022-08-21T05:39:18;10.97;;;6.97;;
7583;SDS011;3833;41.764;26.204;2022-08-21T05:41:45;15.13;;;7.30;;
7583;SDS011;3833;41.764;26.204;2022-08-21T05:44:12;14.33;;;7.17;;
7583;SDS011;3833;41.764;26.204;2022-08-21T05:46:39;12.23;;;6.60;;
7583;SDS011;3833;41.764;26.204;2022-08-21T05:49:06;14.17;;;7.80;;
7583;SDS011;3833;41.764;26.204;2022-08-21T05:51:33;12.43;;;9.10;;
7583;SDS011;3833;41.764;26.204;2022-08-21T05:54:00;12.73;;;8.30;;
7583;SDS011;3833;41.764;26.204;2022-08-21T05:56:29;11.03;;;8.40;;
7583;SDS011;3833;41.764;26.204;2022-08-21T05:58:55;11.00;;;8.00;;
7583;SDS011;3833;41.764;26.204;2022-08-21T06:01:23;9.47;;;8.13;;
7583;SDS011;3833;41.764;26.204;2022-08-21T06:03:50;9.27;;;7.90;;
7583;SDS011;3833;41.764;26.204;2022-08-21T06:06:17;9.87;;;7.27;;
7583;SDS011;3833;41.764;26.204;2022-08-21T06:08:44;21.37;;;12.93;;
7583;SDS011;3833;41.764;26.204;2022-08-21T06:11:11;8.83;;;8.03;;
7583;SDS011;3833;41.764;26.204;2022-08-21T06:13:39;19.43;;;9.53;;
7583;SDS011;3833;41.764;26.204;2022-08-21T06:16:08;12.00;;;8.53;;
7583;SDS011;3833;41.764;26.204;2022-08-21T06:18:36;13.23;;;8.97;;
7583;SDS011;3833;41.764;26.204;2022-08-21T06:21:04;12.90;;;9.87;;
7583;SDS011;3833;41.764;26.204;2022-08-21T06:23:32;13.87;;;9.23;;
7583;SDS011;3833;41.764;26.204;2022-08-21T06:25:59;14.67;;;10.33;;
7583;SDS011;3833;41.764;26.204;2022-08-21T06:28:26;16.00;;;11.07;;
7583;SDS011;3833;41.764;26.204;2022-08-21T06:30:58;21.00;;;11.20;;
7583;SDS011;3833;41.764;26.204;2022-08-21T06:33:25;18.07;;;10.53;;
7583;SDS011;3833;41.764;26.204;2022-08-21T06:35:52;16.80;;;11.43;;
7583;SDS011;3833;41.764;26.204;2022-08-21T06:38:19;19.17;;;12.07;;
7583;SDS011;3833;41.764;26.204;2022-08-21T06:40:46;16.73;;;13.83;;
7583;SDS011;3833;41.764;26.204;2022-08-21T06:43:16;13.53;;;10.20;;
7583;SDS011;3833;41.764;26.204;2022-08-21T06:45:43;16.00;;;10.97;;
7583;SDS011;3833;41.764;26.204;2022-08-21T06:48:12;14.37;;;9.83;;
7583;SDS011;3833;41.764;26.204;2022-08-21T06:50:38;9.83;;;8.93;;
7583;SDS011;3833;41.764;26.204;2022-08-21T06:53:06;10.80;;;9.50;;
7583;SDS011;3833;41.764;26.204;2022-08-21T06:55:35;13.57;;;8.63;;
7583;SDS011;3833;41.764;26.204;2022-08-21T06:58:05;13.03;;;9.03;;
7583;SDS011;3833;41.764;26.204;2022-08-21T07:00:32;11.80;;;9.37;;
7583;SDS011;3833;41.764;26.204;2022-08-21T07:03:00;11.20;;;8.63;;
7583;SDS011;3833;41.764;26.204;2022-08-21T07:05:29;9.50;;;8.50;;
7583;SDS011;3833;41.764;26.204;2022-08-21T07:07:57;12.90;;;8.93;;
7583;SDS011;3833;41.764;26.204;2022-08-21T07:10:25;16.50;;;9.27;;
7583;SDS011;3833;41.764;26.204;2022-08-21T07:12:52;15.23;;;9.80;;
7583;SDS011;3833;41.764;26.204;2022-08-21T07:15:20;9.97;;;8.80;;
7583;SDS011;3833;41.764;26.204;2022-08-21T07:17:47;10.20;;;8.93;;
7583;SDS011;3833;41.764;26.204;2022-08-21T07:20:14;11.23;;;10.13;;
7583;SDS011;3833;41.764;26.204;2022-08-21T07:22:42;11.70;;;9.47;;
7583;SDS011;3833;41.764;26.204;2022-08-21T07:25:11;9.63;;;8.57;;
7583;SDS011;3833;41.764;26.204;2022-08-21T07:27:38;8.73;;;7.93;;
7583;SDS011;3833;41.764;26.204;2022-08-21T07:30:06;9.77;;;8.70;;
7583;SDS011;3833;41.764;26.204;2022-08-21T07:32:33;10.63;;;9.53;;
7583;SDS011;3833;41.764;26.204;2022-08-21T07:35:00;10.67;;;9.70;;
7583;SDS011;3833;41.764;26.204;2022-08-21T07:37:29;11.50;;;10.10;;
7583;SDS011;3833;41.764;26.204;2022-08-21T07:39:57;10.40;;;9.40;;
7583;SDS011;3833;41.764;26.204;2022-08-21T07:42:24;14.03;;;9.90;;
7583;SDS011;3833;41.764;26.204;2022-08-21T07:44:51;11.80;;;10.60;;
7583;SDS011;3833;41.764;26.204;2022-08-21T07:47:18;11.13;;;8.40;;
7583;SDS011;3833;41.764;26.204;2022-08-21T07:49:46;8.63;;;7.83;;
7583;SDS011;3833;41.764;26.204;2022-08-21T07:52:13;11.07;;;9.97;;
7583;SDS011;3833;41.764;26.204;2022-08-21T07:54:40;10.97;;;9.20;;
7583;SDS011;3833;41.764;26.204;2022-08-21T07:57:09;18.77;;;9.77;;
7583;SDS011;3833;41.764;26.204;2022-08-21T07:59:36;10.27;;;8.70;;
7583;SDS011;3833;41.764;26.204;2022-08-21T08:02:03;12.73;;;10.07;;
7583;SDS011;3833;41.764;26.204;2022-08-21T08:04:32;12.70;;;10.37;;
7583;SDS011;3833;41.764;26.204;2022-08-21T08:06:59;16.43;;;11.60;;
7583;SDS011;3833;41.764;26.204;2022-08-21T08:09:29;12.53;;;11.33;;
7583;SDS011;3833;41.764;26.204;2022-08-21T08:11:56;15.27;;;12.43;;
7583;SDS011;3833;41.764;26.204;2022-08-21T08:14:24;13.03;;;11.73;;
7583;SDS011;3833;41.764;26.204;2022-08-21T08:16:51;11.50;;;10.30;;
7583;SDS011;3833;41.764;26.204;2022-08-21T08:19:18;10.23;;;9.23;;
7583;SDS011;3833;41.764;26.204;2022-08-21T08:21:44;10.83;;;9.00;;
7583;SDS011;3833;41.764;26.204;2022-08-21T08:24:12;11.87;;;9.43;;
7583;SDS011;3833;41.764;26.204;2022-08-21T08:26:38;10.07;;;9.03;;
7583;SDS011;3833;41.764;26.204;2022-08-21T08:29:05;10.63;;;8.67;;
7583;SDS011;3833;41.764;26.204;2022-08-21T08:31:36;9.40;;;8.53;;
7583;SDS011;3833;41.764;26.204;2022-08-21T08:34:03;11.13;;;9.67;;
7583;SDS011;3833;41.764;26.204;2022-08-21T08:36:31;10.53;;;8.83;;
7583;SDS011;3833;41.764;26.204;2022-08-21T08:39:00;9.97;;;8.97;;
7583;SDS011;3833;41.764;26.204;2022-08-21T08:41:27;12.40;;;10.30;;
7583;SDS011;3833;41.764;26.204;2022-08-21T08:43:58;10.13;;;9.23;;
7583;SDS011;3833;41.764;26.204;2022-08-21T08:46:30;11.43;;;10.37;;
7583;SDS011;3833;41.764;26.204;2022-08-21T08:49:02;11.13;;;9.57;;
7583;SDS011;3833;41.764;26.204;2022-08-21T08:51:39;11.13;;;9.87;;
7583;SDS011;3833;41.764;26.204;2022-08-21T08:54:11;10.73;;;9.63;;
7583;SDS011;3833;41.764;26.204;2022-08-21T08:56:43;10.97;;;9.87;;
7583;SDS011;3833;41.764;26.204;2022-08-21T08:59:19;11.10;;;9.83;;
7583;SDS011;3833;41.764;26.204;2022-08-21T09:01:49;11.53;;;10.50;;
7583;SDS011;3833;41.764;26.204;2022-08-21T09:04:18;11.90;;;10.53;;
7583;SDS011;3833;41.764;26.204;2022-08-21T09:07:09;10.23;;;9.33;;
7583;SDS011;3833;41.764;26.204;2022-08-21T09:09:49;11.70;;;9.77;;
7583;SDS011;3833;41.764;26.204;2022-08-21T09:12:28;11.63;;;8.93;;
7583;SDS011;3833;41.764;26.204;2022-08-21T09:15:06;10.03;;;9.03;;
7583;SDS011;3833;41.764;26.204;2022-08-21T09:17:46;13.27;;;9.53;;
7583;SDS011;3833;41.764;26.204;2022-08-21T09:20:29;8.30;;;6.63;;
7583;SDS011;3833;41.764;26.204;2022-08-21T09:23:07;11.20;;;7.60;;
7583;SDS011;3833;41.764;26.204;2022-08-21T09:25:46;9.57;;;7.80;;
7583;SDS011;3833;41.764;26.204;2022-08-21T09:28:22;13.87;;;8.40;;
7583;SDS011;3833;41.764;26.204;2022-08-21T09:30:49;14.70;;;8.07;;
7583;SDS011;3833;41.764;26.204;2022-08-21T09:33:20;9.07;;;6.87;;
7583;SDS011;3833;41.764;26.204;2022-08-21T09:35:49;10.63;;;6.47;;
7583;SDS011;3833;41.764;26.204;2022-08-21T09:38:26;13.87;;;7.10;;
7583;SDS011;3833;41.764;26.204;2022-08-21T09:40:57;15.57;;;6.57;;
7583;SDS011;3833;41.764;26.204;2022-08-21T09:43:26;8.63;;;5.93;;
7583;SDS011;3833;41.764;26.204;2022-08-21T09:46:02;13.77;;;6.57;;
7583;SDS011;3833;41.764;26.204;2022-08-21T09:48:38;10.43;;;6.10;;
7583;SDS011;3833;41.764;26.204;2022-08-21T09:51:14;10.57;;;6.53;;
7583;SDS011;3833;41.764;26.204;2022-08-21T09:53:44;9.70;;;6.47;;
7583;SDS011;3833;41.764;26.204;2022-08-21T09:56:18;17.77;;;6.60;;
7583;SDS011;3833;41.764;26.204;2022-08-21T10:01:52;9.40;;;6.30;;
7583;SDS011;3833;41.764;26.204;2022-08-21T10:04:21;11.73;;;6.57;;
7583;SDS011;3833;41.764;26.204;2022-08-21T10:06:51;10.30;;;6.13;;
7583;SDS011;3833;41.764;26.204;2022-08-21T10:09:19;10.17;;;6.97;;
7583;SDS011;3833;41.764;26.204;2022-08-21T10:11:49;13.33;;;6.80;;
7583;SDS011;3833;41.764;26.204;2022-08-21T10:14:41;8.13;;;5.90;;
7583;SDS011;3833;41.764;26.204;2022-08-21T10:17:16;10.03;;;6.30;;
7583;SDS011;3833;41.764;26.204;2022-08-21T10:19:50;9.17;;;6.50;;
7583;SDS011;3833;41.764;26.204;2022-08-21T10:22:26;10.30;;;6.20;;
7583;SDS011;3833;41.764;26.204;2022-08-21T10:25:02;9.90;;;6.60;;
7583;SDS011;3833;41.764;26.204;2022-08-21T10:27:37;9.90;;;6.53;;
7583;SDS011;3833;41.764;26.204;2022-08-21T10:30:14;13.60;;;6.77;;
7583;SDS011;3833;41.764;26.204;2022-08-21T10:35:35;8.77;;;6.23;;
7583;SDS011;3833;41.764;26.204;2022-08-21T10:41:12;9.87;;;6.73;;
7583;SDS011;3833;41.764;26.204;2022-08-21T10:43:46;10.17;;;7.30;;
7583;SDS011;3833;41.764;26.204;2022-08-21T10:46:26;10.63;;;6.80;;
7583;SDS011;3833;41.764;26.204;2022-08-21T10:49:05;9.37;;;6.73;;
7583;SDS011;3833;41.764;26.204;2022-08-21T10:51:40;11.20;;;7.40;;
7583;SDS011;3833;41.764;26.204;2022-08-21T10:54:16;10.67;;;7.37;;
7583;SDS011;3833;41.764;26.204;2022-08-21T10:56:56;8.33;;;7.20;;
7583;SDS011;3833;41.764;26.204;2022-08-21T10:59:29;11.40;;;7.87;;
7583;SDS011;3833;41.764;26.204;2022-08-21T11:02:09;8.60;;;7.67;;
7583;SDS011;3833;41.764;26.204;2022-08-21T11:04:43;11.77;;;7.43;;
7583;SDS011;3833;41.764;26.204;2022-08-21T11:07:18;8.63;;;7.73;;
7583;SDS011;3833;41.764;26.204;2022-08-21T11:09:48;10.97;;;7.77;;
7583;SDS011;3833;41.764;26.204;2022-08-21T11:12:19;10.63;;;7.33;;
7583;SDS011;3833;41.764;26.204;2022-08-21T11:14:53;9.70;;;7.40;;
7583;SDS011;3833;41.764;26.204;2022-08-21T11:17:27;12.13;;;6.60;;
7583;SDS011;3833;41.764;26.204;2022-08-21T11:20:03;10.60;;;7.03;;
7583;SDS011;3833;41.764;26.204;2022-08-21T11:22:36;10.23;;;6.87;;
7583;SDS011;3833;41.764;26.204;2022-08-21T11:25:08;9.67;;;7.40;;
7583;SDS011;3833;41.764;26.204;2022-08-21T11:27:45;9.97;;;7.97;;
7583;SDS011;3833;41.764;26.204;2022-08-21T11:30:15;9.83;;;8.30;;
7583;SDS011;3833;41.764;26.204;2022-08-21T11:32:49;10.53;;;7.50;;
7583;SDS011;3833;41.764;26.204;2022-08-21T11:35:29;11.57;;;8.17;;
7583;SDS011;3833;41.764;26.204;2022-08-21T11:38:06;10.93;;;8.40;;
7583;SDS011;3833;41.764;26.204;2022-08-21T11:40:52;11.73;;;8.47;;
7583;SDS011;3833;41.764;26.204;2022-08-21T11:43:32;13.87;;;8.83;;
7583;SDS011;3833;41.764;26.204;2022-08-21T11:46:11;11.77;;;8.93;;
7583;SDS011;3833;41.764;26.204;2022-08-21T11:48:59;10.30;;;9.20;;
7583;SDS011;3833;41.764;26.204;2022-08-21T11:51:40;12.80;;;9.97;;
7583;SDS011;3833;41.764;26.204;2022-08-21T11:54:16;10.43;;;9.27;;
7583;SDS011;3833;41.764;26.204;2022-08-21T11:56:53;13.27;;;8.77;;
7583;SDS011;3833;41.764;26.204;2022-08-21T11:59:29;11.73;;;9.13;;
7583;SDS011;3833;41.764;26.204;2022-08-21T12:02:02;16.73;;;10.20;;
7583;SDS011;3833;41.764;26.204;2022-08-21T12:04:42;12.90;;;10.00;;
7583;SDS011;3833;41.764;26.204;2022-08-21T12:07:13;11.47;;;8.83;;
7583;SDS011;3833;41.764;26.204;2022-08-21T12:09:51;10.37;;;8.70;;
7583;SDS011;3833;41.764;26.204;2022-08-21T12:12:24;11.47;;;9.07;;
7583;SDS011;3833;41.764;26.204;2022-08-21T12:15:05;13.13;;;8.63;;
7583;SDS011;3833;41.764;26.204;2022-08-21T12:17:52;11.53;;;8.03;;
7583;SDS011;3833;41.764;26.204;2022-08-21T12:23:25;8.30;;;7.50;;
7583;SDS011;3833;41.764;26.204;2022-08-21T12:26:16;8.83;;;7.23;;
7583;SDS011;3833;41.764;26.204;2022-08-21T12:28:50;8.87;;;7.83;;
7583;SDS011;3833;41.764;26.204;2022-08-21T12:31:19;9.77;;;7.23;;
7583;SDS011;3833;41.764;26.204;2022-08-21T12:33:54;8.90;;;7.70;;
7583;SDS011;3833;41.764;26.204;2022-08-21T12:36:24;8.30;;;7.50;;
7583;SDS011;3833;41.764;26.204;2022-08-21T12:38:57;11.27;;;8.23;;
7583;SDS011;3833;41.764;26.204;2022-08-21T12:41:32;10.83;;;7.93;;
7583;SDS011;3833;41.764;26.204;2022-08-21T12:44:04;11.47;;;7.73;;
7583;SDS011;3833;41.764;26.204;2022-08-21T12:46:46;10.87;;;8.43;;
7583;SDS011;3833;41.764;26.204;2022-08-21T12:49:36;10.43;;;8.63;;
7583;SDS011;3833;41.764;26.204;2022-08-21T12:52:11;10.37;;;8.33;;
7583;SDS011;3833;41.764;26.204;2022-08-21T12:54:44;9.77;;;8.77;;
7583;SDS011;3833;41.764;26.204;2022-08-21T12:57:17;9.47;;;8.30;;
7583;SDS011;3833;41.764;26.204;2022-08-21T12:59:46;67.67;;;15.47;;
7583;SDS011;3833;41.764;26.204;2022-08-21T13:02:22;11.33;;;8.13;;
7583;SDS011;3833;41.764;26.204;2022-08-21T13:04:53;10.43;;;8.27;;
7583;SDS011;3833;41.764;26.204;2022-08-21T13:07:23;12.27;;;8.30;;
7583;SDS011;3833;41.764;26.204;2022-08-21T13:09:58;10.53;;;8.33;;
7583;SDS011;3833;41.764;26.204;2022-08-21T13:12:31;10.47;;;8.33;;
7583;SDS011;3833;41.764;26.204;2022-08-21T13:15:02;9.67;;;8.10;;
7583;SDS011;3833;41.764;26.204;2022-08-21T13:17:34;9.27;;;8.27;;
7583;SDS011;3833;41.764;26.204;2022-08-21T13:20:24;10.57;;;8.30;;
7583;SDS011;3833;41.764;26.204;2022-08-21T13:22:54;11.83;;;8.97;;
7583;SDS011;3833;41.764;26.204;2022-08-21T13:25:24;9.27;;;8.37;;
7583;SDS011;3833;41.764;26.204;2022-08-21T13:27:57;9.27;;;8.30;;
7583;SDS011;3833;41.764;26.204;2022-08-21T13:30:25;9.77;;;7.67;;
7583;SDS011;3833;41.764;26.204;2022-08-21T13:32:56;8.50;;;7.70;;
7583;SDS011;3833;41.764;26.204;2022-08-21T13:35:27;11.40;;;8.47;;
7583;SDS011;3833;41.764;26.204;2022-08-21T13:37:57;12.07;;;8.67;;
7583;SDS011;3833;41.764;26.204;2022-08-21T13:40:26;10.60;;;7.70;;
7583;SDS011;3833;41.764;26.204;2022-08-21T13:42:56;8.77;;;7.90;;
7583;SDS011;3833;41.764;26.204;2022-08-21T13:45:25;9.40;;;7.33;;
7583;SDS011;3833;41.764;26.204;2022-08-21T13:47:57;11.40;;;8.17;;
7583;SDS011;3833;41.764;26.204;2022-08-21T13:50:26;11.23;;;8.10;;
7583;SDS011;3833;41.764;26.204;2022-08-21T13:52:55;12.00;;;8.30;;
7583;SDS011;3833;41.764;26.204;2022-08-21T13:55:25;8.60;;;7.70;;
7583;SDS011;3833;41.764;26.204;2022-08-21T13:58:00;9.33;;;7.60;;
7583;SDS011;3833;41.764;26.204;2022-08-21T14:00:30;14.00;;;8.23;;
7583;SDS011;3833;41.764;26.204;2022-08-21T14:03:03;10.40;;;8.13;;
7583;SDS011;3833;41.764;26.204;2022-08-21T14:05:33;7.90;;;7.10;;
7583;SDS011;3833;41.764;26.204;2022-08-21T14:08:03;10.63;;;7.70;;
7583;SDS011;3833;41.764;26.204;2022-08-21T14:10:35;9.90;;;7.33;;
7583;SDS011;3833;41.764;26.204;2022-08-21T14:13:04;10.30;;;7.47;;
7583;SDS011;3833;41.764;26.204;2022-08-21T14:15:33;12.83;;;7.93;;
7583;SDS011;3833;41.764;26.204;2022-08-21T14:18:13;12.70;;;8.50;;
7583;SDS011;3833;41.764;26.204;2022-08-21T14:20:41;8.93;;;7.10;;
7583;SDS011;3833;41.764;26.204;2022-08-21T14:23:08;9.20;;;7.27;;
7583;SDS011;3833;41.764;26.204;2022-08-21T14:25:37;8.83;;;7.00;;
7583;SDS011;3833;41.764;26.204;2022-08-21T14:28:11;9.57;;;7.10;;
7583;SDS011;3833;41.764;26.204;2022-08-21T14:31:11;7.77;;;6.97;;
7583;SDS011;3833;41.764;26.204;2022-08-21T14:33:42;7.60;;;6.83;;
7583;SDS011;3833;41.764;26.204;2022-08-21T14:36:09;10.20;;;6.87;;
7583;SDS011;3833;41.764;26.204;2022-08-21T14:38:38;7.90;;;6.87;;
7583;SDS011;3833;41.764;26.204;2022-08-21T14:41:08;8.17;;;7.23;;
7583;SDS011;3833;41.764;26.204;2022-08-21T14:43:42;9.80;;;7.47;;
7583;SDS011;3833;41.764;26.204;2022-08-21T14:46:10;10.53;;;7.87;;
7583;SDS011;3833;41.764;26.204;2022-08-21T14:48:39;10.53;;;7.50;;
7583;SDS011;3833;41.764;26.204;2022-08-21T14:51:07;8.73;;;7.83;;
7583;SDS011;3833;41.764;26.204;2022-08-21T14:53:35;8.47;;;6.93;;
7583;SDS011;3833;41.764;26.204;2022-08-21T14:56:05;9.20;;;8.20;;
7583;SDS011;3833;41.764;26.204;2022-08-21T14:58:33;12.87;;;8.00;;
7583;SDS011;3833;41.764;26.204;2022-08-21T15:01:02;12.13;;;7.80;;
7583;SDS011;3833;41.764;26.204;2022-08-21T15:03:30;9.07;;;8.13;;
7583;SDS011;3833;41.764;26.204;2022-08-21T15:06:00;15.57;;;9.40;;
7583;SDS011;3833;41.764;26.204;2022-08-21T15:08:29;11.83;;;9.10;;
7583;SDS011;3833;41.764;26.204;2022-08-21T15:10:57;10.30;;;8.83;;
7583;SDS011;3833;41.764;26.204;2022-08-21T15:13:25;12.07;;;8.97;;
7583;SDS011;3833;41.764;26.204;2022-08-21T15:15:52;11.37;;;8.37;;
7583;SDS011;3833;41.764;26.204;2022-08-21T15:18:21;8.57;;;7.67;;
7583;SDS011;3833;41.764;26.204;2022-08-21T15:20:48;13.30;;;8.77;;
7583;SDS011;3833;41.764;26.204;2022-08-21T15:23:15;9.27;;;8.37;;